Tampa, Florida
Traffic Map
Current Weather Conditions
Tampa, Florida
Overcast Light Rain
Overcast
26°
Feels Like: 27°
Wind Chill: 26° Ceiling: 5000
Heat Index: 27° Visibility: 10mi
Dew Point: 23° Wind: 16mph
Humidity: 87% Direction: 260° (W)
Pressure: 29.93in Gusts: 0mph
Raw Report DataKTPA 280953Z 26014KT 10SM -RA SCT010 BKN050 OVC110 26/23 A2993 RMK AO2 SLP135 P0000 T02560233
Traffic Incident Summary
Active as of:
Severity:
Category:
InformationThere was an issue retrieving the traffic information for this location. Please try a different location or try again shortly.
Advertisements
Track Severe Weather on mobile